sensor_id;sensor_type;location;lat;lon;timestamp;P1;durP1;ratioP1;P2;durP2;ratioP2
85523;SDS011;75932;48.616;9.270;2024-03-07T00:00:46;41.72;;;23.27;;
85523;SDS011;75932;48.616;9.270;2024-03-07T00:03:12;42.90;;;23.05;;
85523;SDS011;75932;48.616;9.270;2024-03-07T00:05:38;41.60;;;22.15;;
85523;SDS011;75932;48.616;9.270;2024-03-07T00:08:06;34.55;;;16.85;;
85523;SDS011;75932;48.616;9.270;2024-03-07T00:10:31;39.70;;;20.73;;
85523;SDS011;75932;48.616;9.270;2024-03-07T00:12:56;32.85;;;18.38;;
85523;SDS011;75932;48.616;9.270;2024-03-07T00:15:22;43.55;;;20.35;;
85523;SDS011;75932;48.616;9.270;2024-03-07T00:17:48;33.95;;;18.27;;
85523;SDS011;75932;48.616;9.270;2024-03-07T00:20:13;31.90;;;18.55;;
85523;SDS011;75932;48.616;9.270;2024-03-07T00:22:44;31.90;;;20.65;;
85523;SDS011;75932;48.616;9.270;2024-03-07T00:25:09;37.72;;;18.77;;
85523;SDS011;75932;48.616;9.270;2024-03-07T00:27:36;39.00;;;20.70;;
85523;SDS011;75932;48.616;9.270;2024-03-07T00:30:03;38.25;;;20.92;;
85523;SDS011;75932;48.616;9.270;2024-03-07T00:32:30;39.38;;;25.77;;
85523;SDS011;75932;48.616;9.270;2024-03-07T00:35:00;34.22;;;20.00;;
85523;SDS011;75932;48.616;9.270;2024-03-07T00:37:28;40.38;;;25.65;;
85523;SDS011;75932;48.616;9.270;2024-03-07T00:39:53;35.60;;;18.20;;
85523;SDS011;75932;48.616;9.270;2024-03-07T00:42:18;37.65;;;19.38;;
85523;SDS011;75932;48.616;9.270;2024-03-07T00:44:44;36.10;;;20.50;;
85523;SDS011;75932;48.616;9.270;2024-03-07T00:47:10;38.27;;;20.83;;
85523;SDS011;75932;48.616;9.270;2024-03-07T00:49:35;38.85;;;18.75;;
85523;SDS011;75932;48.616;9.270;2024-03-07T00:52:01;40.72;;;20.75;;
85523;SDS011;75932;48.616;9.270;2024-03-07T00:54:26;34.97;;;21.13;;
85523;SDS011;75932;48.616;9.270;2024-03-07T00:56:52;29.10;;;16.67;;
85523;SDS011;75932;48.616;9.270;2024-03-07T00:59:18;33.90;;;18.92;;
85523;SDS011;75932;48.616;9.270;2024-03-07T01:01:43;38.60;;;20.23;;
85523;SDS011;75932;48.616;9.270;2024-03-07T01:04:09;40.37;;;20.43;;
85523;SDS011;75932;48.616;9.270;2024-03-07T01:06:34;27.85;;;17.95;;
85523;SDS011;75932;48.616;9.270;2024-03-07T01:09:01;44.03;;;24.30;;
85523;SDS011;75932;48.616;9.270;2024-03-07T01:11:27;40.60;;;20.92;;
85523;SDS011;75932;48.616;9.270;2024-03-07T01:13:53;36.85;;;19.90;;
85523;SDS011;75932;48.616;9.270;2024-03-07T01:16:18;41.97;;;21.23;;
85523;SDS011;75932;48.616;9.270;2024-03-07T01:18:44;36.05;;;20.20;;
85523;SDS011;75932;48.616;9.270;2024-03-07T01:21:09;36.70;;;25.37;;
85523;SDS011;75932;48.616;9.270;2024-03-07T01:23:34;45.38;;;22.88;;
85523;SDS011;75932;48.616;9.270;2024-03-07T01:26:00;39.40;;;20.10;;
85523;SDS011;75932;48.616;9.270;2024-03-07T01:28:25;41.25;;;23.27;;
85523;SDS011;75932;48.616;9.270;2024-03-07T01:30:54;38.08;;;21.90;;
85523;SDS011;75932;48.616;9.270;2024-03-07T01:33:20;37.38;;;20.30;;
85523;SDS011;75932;48.616;9.270;2024-03-07T01:35:46;43.10;;;21.93;;
85523;SDS011;75932;48.616;9.270;2024-03-07T01:38:11;38.47;;;19.17;;
85523;SDS011;75932;48.616;9.270;2024-03-07T01:40:39;29.77;;;16.30;;
85523;SDS011;75932;48.616;9.270;2024-03-07T01:43:04;37.83;;;20.05;;
85523;SDS011;75932;48.616;9.270;2024-03-07T01:45:31;43.17;;;22.23;;
85523;SDS011;75932;48.616;9.270;2024-03-07T01:47:57;39.85;;;20.35;;
85523;SDS011;75932;48.616;9.270;2024-03-07T01:50:22;43.17;;;22.73;;
85523;SDS011;75932;48.616;9.270;2024-03-07T01:52:47;45.03;;;23.05;;
85523;SDS011;75932;48.616;9.270;2024-03-07T01:55:15;30.88;;;19.05;;
85523;SDS011;75932;48.616;9.270;2024-03-07T01:57:41;42.50;;;22.67;;
85523;SDS011;75932;48.616;9.270;2024-03-07T02:00:07;45.95;;;23.02;;
85523;SDS011;75932;48.616;9.270;2024-03-07T02:02:33;43.25;;;22.83;;
85523;SDS011;75932;48.616;9.270;2024-03-07T02:04:59;49.28;;;23.83;;
85523;SDS011;75932;48.616;9.270;2024-03-07T02:07:27;41.20;;;25.00;;
85523;SDS011;75932;48.616;9.270;2024-03-07T02:10:05;48.53;;;25.52;;
85523;SDS011;75932;48.616;9.270;2024-03-07T02:12:31;43.00;;;21.98;;
85523;SDS011;75932;48.616;9.270;2024-03-07T02:14:58;43.47;;;22.58;;
85523;SDS011;75932;48.616;9.270;2024-03-07T02:17:24;45.83;;;23.40;;
85523;SDS011;75932;48.616;9.270;2024-03-07T02:19:50;46.00;;;23.92;;
85523;SDS011;75932;48.616;9.270;2024-03-07T02:22:16;46.72;;;25.30;;
85523;SDS011;75932;48.616;9.270;2024-03-07T02:24:41;47.92;;;23.88;;
85523;SDS011;75932;48.616;9.270;2024-03-07T02:27:07;45.77;;;23.73;;
85523;SDS011;75932;48.616;9.270;2024-03-07T02:29:33;41.90;;;22.52;;
85523;SDS011;75932;48.616;9.270;2024-03-07T02:31:59;45.33;;;23.13;;
85523;SDS011;75932;48.616;9.270;2024-03-07T02:34:24;46.10;;;23.47;;
85523;SDS011;75932;48.616;9.270;2024-03-07T02:36:51;47.60;;;23.20;;
85523;SDS011;75932;48.616;9.270;2024-03-07T02:39:17;48.25;;;25.02;;
85523;SDS011;75932;48.616;9.270;2024-03-07T02:41:42;46.27;;;23.93;;
85523;SDS011;75932;48.616;9.270;2024-03-07T02:44:08;51.50;;;25.13;;
85523;SDS011;75932;48.616;9.270;2024-03-07T02:46:34;45.72;;;22.90;;
85523;SDS011;75932;48.616;9.270;2024-03-07T02:48:59;50.17;;;24.50;;
85523;SDS011;75932;48.616;9.270;2024-03-07T02:51:25;46.58;;;24.95;;
85523;SDS011;75932;48.616;9.270;2024-03-07T02:53:50;46.27;;;24.47;;
85523;SDS011;75932;48.616;9.270;2024-03-07T02:56:15;44.97;;;24.43;;
85523;SDS011;75932;48.616;9.270;2024-03-07T02:58:41;48.53;;;25.63;;
85523;SDS011;75932;48.616;9.270;2024-03-07T03:01:07;43.00;;;25.30;;
85523;SDS011;75932;48.616;9.270;2024-03-07T03:03:32;56.27;;;26.87;;
85523;SDS011;75932;48.616;9.270;2024-03-07T03:05:58;42.30;;;23.30;;
85523;SDS011;75932;48.616;9.270;2024-03-07T03:08:24;49.38;;;26.27;;
85523;SDS011;75932;48.616;9.270;2024-03-07T03:10:50;49.83;;;25.00;;
85523;SDS011;75932;48.616;9.270;2024-03-07T03:13:18;43.70;;;23.35;;
85523;SDS011;75932;48.616;9.270;2024-03-07T03:15:43;51.23;;;26.83;;
85523;SDS011;75932;48.616;9.270;2024-03-07T03:18:08;49.60;;;26.90;;
85523;SDS011;75932;48.616;9.270;2024-03-07T03:20:34;47.00;;;26.00;;
85523;SDS011;75932;48.616;9.270;2024-03-07T03:23:03;49.90;;;24.42;;
85523;SDS011;75932;48.616;9.270;2024-03-07T03:25:30;54.75;;;26.52;;
85523;SDS011;75932;48.616;9.270;2024-03-07T03:28:00;50.78;;;27.00;;
85523;SDS011;75932;48.616;9.270;2024-03-07T03:30:29;47.58;;;25.40;;
85523;SDS011;75932;48.616;9.270;2024-03-07T03:32:54;55.40;;;26.98;;
85523;SDS011;75932;48.616;9.270;2024-03-07T03:35:20;47.83;;;24.17;;
85523;SDS011;75932;48.616;9.270;2024-03-07T03:37:45;51.08;;;27.33;;
85523;SDS011;75932;48.616;9.270;2024-03-07T03:40:11;51.20;;;24.23;;
85523;SDS011;75932;48.616;9.270;2024-03-07T03:42:39;54.10;;;25.08;;
85523;SDS011;75932;48.616;9.270;2024-03-07T03:45:06;53.85;;;23.92;;
85523;SDS011;75932;48.616;9.270;2024-03-07T03:47:33;48.65;;;24.55;;
85523;SDS011;75932;48.616;9.270;2024-03-07T03:50:03;42.75;;;20.92;;
85523;SDS011;75932;48.616;9.270;2024-03-07T03:52:32;57.08;;;25.40;;
85523;SDS011;75932;48.616;9.270;2024-03-07T03:54:58;52.60;;;26.23;;
85523;SDS011;75932;48.616;9.270;2024-03-07T03:57:27;49.13;;;23.20;;
85523;SDS011;75932;48.616;9.270;2024-03-07T03:59:54;51.58;;;24.98;;
85523;SDS011;75932;48.616;9.270;2024-03-07T04:02:21;51.58;;;25.58;;
85523;SDS011;75932;48.616;9.270;2024-03-07T04:04:50;49.00;;;27.27;;
85523;SDS011;75932;48.616;9.270;2024-03-07T04:07:18;51.63;;;25.67;;
85523;SDS011;75932;48.616;9.270;2024-03-07T04:09:44;52.75;;;26.08;;
85523;SDS011;75932;48.616;9.270;2024-03-07T04:12:10;54.35;;;24.77;;
85523;SDS011;75932;48.616;9.270;2024-03-07T04:14:43;54.58;;;28.25;;
85523;SDS011;75932;48.616;9.270;2024-03-07T04:17:08;49.70;;;24.40;;
85523;SDS011;75932;48.616;9.270;2024-03-07T04:19:41;50.00;;;25.15;;
85523;SDS011;75932;48.616;9.270;2024-03-07T04:22:07;51.70;;;27.17;;
85523;SDS011;75932;48.616;9.270;2024-03-07T04:24:36;42.65;;;24.83;;
85523;SDS011;75932;48.616;9.270;2024-03-07T04:27:02;47.60;;;24.10;;
85523;SDS011;75932;48.616;9.270;2024-03-07T04:29:34;51.05;;;25.95;;
85523;SDS011;75932;48.616;9.270;2024-03-07T04:32:02;54.22;;;25.42;;
85523;SDS011;75932;48.616;9.270;2024-03-07T04:34:29;44.80;;;21.83;;
85523;SDS011;75932;48.616;9.270;2024-03-07T04:36:56;50.88;;;23.27;;
85523;SDS011;75932;48.616;9.270;2024-03-07T04:39:21;53.25;;;27.10;;
85523;SDS011;75932;48.616;9.270;2024-03-07T04:41:53;52.75;;;25.60;;
85523;SDS011;75932;48.616;9.270;2024-03-07T04:44:19;51.95;;;23.75;;
85523;SDS011;75932;48.616;9.270;2024-03-07T04:46:47;51.17;;;25.63;;
85523;SDS011;75932;48.616;9.270;2024-03-07T04:49:14;44.30;;;23.30;;
85523;SDS011;75932;48.616;9.270;2024-03-07T04:51:39;40.47;;;23.43;;
85523;SDS011;75932;48.616;9.270;2024-03-07T04:54:08;51.50;;;27.38;;
85523;SDS011;75932;48.616;9.270;2024-03-07T04:56:33;47.77;;;24.37;;
85523;SDS011;75932;48.616;9.270;2024-03-07T04:58:58;49.53;;;24.67;;
85523;SDS011;75932;48.616;9.270;2024-03-07T05:01:23;49.60;;;24.67;;
85523;SDS011;75932;48.616;9.270;2024-03-07T05:03:50;50.63;;;24.30;;
85523;SDS011;75932;48.616;9.270;2024-03-07T05:06:17;38.17;;;21.30;;
85523;SDS011;75932;48.616;9.270;2024-03-07T05:08:43;49.78;;;25.65;;
85523;SDS011;75932;48.616;9.270;2024-03-07T05:11:08;52.27;;;26.50;;
85523;SDS011;75932;48.616;9.270;2024-03-07T05:13:34;51.70;;;25.53;;
85523;SDS011;75932;48.616;9.270;2024-03-07T05:15:59;49.63;;;29.08;;
85523;SDS011;75932;48.616;9.270;2024-03-07T05:18:25;35.50;;;21.27;;
85523;SDS011;75932;48.616;9.270;2024-03-07T05:20:52;44.53;;;25.38;;
85523;SDS011;75932;48.616;9.270;2024-03-07T05:23:19;46.72;;;29.08;;
85523;SDS011;75932;48.616;9.270;2024-03-07T05:25:44;32.40;;;19.25;;
85523;SDS011;75932;48.616;9.270;2024-03-07T05:28:11;47.85;;;22.52;;
85523;SDS011;75932;48.616;9.270;2024-03-07T05:30:36;38.88;;;22.77;;
85523;SDS011;75932;48.616;9.270;2024-03-07T05:33:02;49.37;;;23.90;;
85523;SDS011;75932;48.616;9.270;2024-03-07T05:35:27;41.10;;;23.13;;
85523;SDS011;75932;48.616;9.270;2024-03-07T05:37:54;33.30;;;18.08;;
85523;SDS011;75932;48.616;9.270;2024-03-07T05:40:21;48.78;;;24.48;;
85523;SDS011;75932;48.616;9.270;2024-03-07T05:42:47;43.80;;;24.25;;
85523;SDS011;75932;48.616;9.270;2024-03-07T05:45:12;36.97;;;21.33;;
85523;SDS011;75932;48.616;9.270;2024-03-07T05:47:40;44.58;;;25.58;;
85523;SDS011;75932;48.616;9.270;2024-03-07T05:50:06;43.00;;;22.30;;
85523;SDS011;75932;48.616;9.270;2024-03-07T05:52:32;40.58;;;24.02;;
85523;SDS011;75932;48.616;9.270;2024-03-07T05:54:57;41.05;;;23.55;;
85523;SDS011;75932;48.616;9.270;2024-03-07T05:57:23;52.20;;;26.02;;
85523;SDS011;75932;48.616;9.270;2024-03-07T05:59:48;42.93;;;22.73;;
85523;SDS011;75932;48.616;9.270;2024-03-07T06:02:13;45.23;;;23.87;;
85523;SDS011;75932;48.616;9.270;2024-03-07T06:04:40;43.38;;;22.38;;
85523;SDS011;75932;48.616;9.270;2024-03-07T06:07:06;45.92;;;23.98;;
85523;SDS011;75932;48.616;9.270;2024-03-07T06:09:31;41.53;;;23.60;;
85523;SDS011;75932;48.616;9.270;2024-03-07T06:11:56;37.57;;;21.83;;
85523;SDS011;75932;48.616;9.270;2024-03-07T06:14:22;36.73;;;18.93;;
85523;SDS011;75932;48.616;9.270;2024-03-07T06:16:49;46.67;;;21.60;;
85523;SDS011;75932;48.616;9.270;2024-03-07T06:19:14;40.27;;;21.37;;
85523;SDS011;75932;48.616;9.270;2024-03-07T06:21:42;38.10;;;20.58;;
85523;SDS011;75932;48.616;9.270;2024-03-07T06:24:07;34.90;;;21.13;;
85523;SDS011;75932;48.616;9.270;2024-03-07T06:26:35;41.33;;;22.58;;
85523;SDS011;75932;48.616;9.270;2024-03-07T06:29:03;38.65;;;22.20;;
85523;SDS011;75932;48.616;9.270;2024-03-07T06:31:30;42.22;;;20.52;;
85523;SDS011;75932;48.616;9.270;2024-03-07T06:33:55;36.78;;;19.70;;
85523;SDS011;75932;48.616;9.270;2024-03-07T06:36:21;40.58;;;20.77;;
85523;SDS011;75932;48.616;9.270;2024-03-07T06:38:47;45.70;;;20.27;;
85523;SDS011;75932;48.616;9.270;2024-03-07T06:41:12;34.22;;;19.98;;
85523;SDS011;75932;48.616;9.270;2024-03-07T06:43:38;37.75;;;21.65;;
85523;SDS011;75932;48.616;9.270;2024-03-07T06:46:04;35.77;;;19.83;;
85523;SDS011;75932;48.616;9.270;2024-03-07T06:48:29;36.15;;;22.95;;
85523;SDS011;75932;48.616;9.270;2024-03-07T06:50:54;41.70;;;21.27;;
85523;SDS011;75932;48.616;9.270;2024-03-07T06:53:20;37.47;;;18.47;;
85523;SDS011;75932;48.616;9.270;2024-03-07T06:55:45;37.80;;;20.40;;
85523;SDS011;75932;48.616;9.270;2024-03-07T06:58:10;44.70;;;21.30;;
85523;SDS011;75932;48.616;9.270;2024-03-07T07:00:36;33.93;;;18.83;;
85523;SDS011;75932;48.616;9.270;2024-03-07T07:03:01;35.23;;;20.73;;
85523;SDS011;75932;48.616;9.270;2024-03-07T07:05:29;40.53;;;21.38;;
85523;SDS011;75932;48.616;9.270;2024-03-07T07:07:55;35.55;;;19.67;;
85523;SDS011;75932;48.616;9.270;2024-03-07T07:10:20;39.45;;;20.17;;
85523;SDS011;75932;48.616;9.270;2024-03-07T07:12:48;43.03;;;22.42;;
85523;SDS011;75932;48.616;9.270;2024-03-07T07:15:15;37.65;;;18.58;;
85523;SDS011;75932;48.616;9.270;2024-03-07T07:17:42;38.90;;;21.83;;
85523;SDS011;75932;48.616;9.270;2024-03-07T07:20:11;41.13;;;22.70;;
85523;SDS011;75932;48.616;9.270;2024-03-07T07:25:05;35.67;;;20.17;;
85523;SDS011;75932;48.616;9.270;2024-03-07T07:27:38;42.42;;;20.83;;
85523;SDS011;75932;48.616;9.270;2024-03-07T07:30:04;38.45;;;19.35;;
85523;SDS011;75932;48.616;9.270;2024-03-07T07:32:30;39.78;;;21.33;;
85523;SDS011;75932;48.616;9.270;2024-03-07T07:34:57;39.85;;;20.90;;
85523;SDS011;75932;48.616;9.270;2024-03-07T07:37:22;39.20;;;21.53;;
85523;SDS011;75932;48.616;9.270;2024-03-07T07:39:48;33.65;;;19.42;;
85523;SDS011;75932;48.616;9.270;2024-03-07T07:42:13;36.70;;;19.67;;
85523;SDS011;75932;48.616;9.270;2024-03-07T07:44:39;39.60;;;19.55;;
85523;SDS011;75932;48.616;9.270;2024-03-07T07:47:05;33.60;;;20.38;;
85523;SDS011;75932;48.616;9.270;2024-03-07T07:49:30;41.22;;;18.38;;
85523;SDS011;75932;48.616;9.270;2024-03-07T07:51:58;40.92;;;19.98;;
85523;SDS011;75932;48.616;9.270;2024-03-07T07:54:23;36.23;;;18.83;;
85523;SDS011;75932;48.616;9.270;2024-03-07T07:56:49;34.28;;;20.08;;
85523;SDS011;75932;48.616;9.270;2024-03-07T07:59:16;34.30;;;21.90;;
85523;SDS011;75932;48.616;9.270;2024-03-07T08:01:41;35.30;;;19.55;;
85523;SDS011;75932;48.616;9.270;2024-03-07T08:04:07;41.00;;;22.00;;
85523;SDS011;75932;48.616;9.270;2024-03-07T08:06:34;36.42;;;22.67;;
85523;SDS011;75932;48.616;9.270;2024-03-07T08:09:00;39.88;;;20.45;;
85523;SDS011;75932;48.616;9.270;2024-03-07T08:11:25;39.75;;;21.48;;
85523;SDS011;75932;48.616;9.270;2024-03-07T08:13:51;41.38;;;20.17;;
85523;SDS011;75932;48.616;9.270;2024-03-07T08:16:16;38.50;;;20.92;;
85523;SDS011;75932;48.616;9.270;2024-03-07T08:18:42;34.03;;;19.50;;
85523;SDS011;75932;48.616;9.270;2024-03-07T08:21:07;36.53;;;21.80;;
85523;SDS011;75932;48.616;9.270;2024-03-07T08:26:01;35.28;;;19.13;;
85523;SDS011;75932;48.616;9.270;2024-03-07T08:28:26;34.40;;;19.57;;
85523;SDS011;75932;48.616;9.270;2024-03-07T08:30:51;35.83;;;20.03;;
85523;SDS011;75932;48.616;9.270;2024-03-07T08:33:17;31.88;;;21.05;;
85523;SDS011;75932;48.616;9.270;2024-03-07T08:35:46;35.80;;;19.63;;
85523;SDS011;75932;48.616;9.270;2024-03-07T08:38:12;34.53;;;18.95;;
85523;SDS011;75932;48.616;9.270;2024-03-07T08:40:37;40.00;;;21.67;;
85523;SDS011;75932;48.616;9.270;2024-03-07T08:43:03;39.33;;;20.67;;
85523;SDS011;75932;48.616;9.270;2024-03-07T08:45:29;32.38;;;18.00;;
85523;SDS011;75932;48.616;9.270;2024-03-07T08:47:58;39.47;;;21.38;;
85523;SDS011;75932;48.616;9.270;2024-03-07T08:50:23;43.70;;;22.95;;
85523;SDS011;75932;48.616;9.270;2024-03-07T08:52:51;32.75;;;19.17;;
85523;SDS011;75932;48.616;9.270;2024-03-07T08:55:24;39.42;;;21.23;;
85523;SDS011;75932;48.616;9.270;2024-03-07T08:57:50;39.33;;;22.08;;
85523;SDS011;75932;48.616;9.270;2024-03-07T09:00:16;38.90;;;22.05;;
85523;SDS011;75932;48.616;9.270;2024-03-07T09:02:52;46.63;;;23.75;;
85523;SDS011;75932;48.616;9.270;2024-03-07T09:05:19;47.10;;;24.38;;
85523;SDS011;75932;48.616;9.270;2024-03-07T09:07:47;46.78;;;22.63;;
85523;SDS011;75932;48.616;9.270;2024-03-07T09:10:13;40.10;;;20.48;;
85523;SDS011;75932;48.616;9.270;2024-03-07T09:12:42;40.75;;;23.52;;
85523;SDS011;75932;48.616;9.270;2024-03-07T09:15:07;38.30;;;21.83;;
85523;SDS011;75932;48.616;9.270;2024-03-07T09:17:35;40.90;;;22.27;;
85523;SDS011;75932;48.616;9.270;2024-03-07T09:20:01;39.58;;;21.65;;
85523;SDS011;75932;48.616;9.270;2024-03-07T09:22:30;39.70;;;21.10;;
85523;SDS011;75932;48.616;9.270;2024-03-07T09:24:56;41.85;;;23.10;;
85523;SDS011;75932;48.616;9.270;2024-03-07T09:27:22;47.92;;;23.73;;
85523;SDS011;75932;48.616;9.270;2024-03-07T09:29:47;39.00;;;21.40;;
85523;SDS011;75932;48.616;9.270;2024-03-07T09:32:12;33.67;;;20.17;;
85523;SDS011;75932;48.616;9.270;2024-03-07T09:34:38;36.25;;;19.85;;
85523;SDS011;75932;48.616;9.270;2024-03-07T09:37:03;40.27;;;20.33;;
85523;SDS011;75932;48.616;9.270;2024-03-07T09:39:29;45.05;;;23.35;;
85523;SDS011;75932;48.616;9.270;2024-03-07T09:41:56;38.78;;;20.63;;
85523;SDS011;75932;48.616;9.270;2024-03-07T09:44:23;43.90;;;21.73;;
85523;SDS011;75932;48.616;9.270;2024-03-07T09:46:52;40.05;;;20.17;;
85523;SDS011;75932;48.616;9.270;2024-03-07T09:49:20;43.53;;;24.42;;
85523;SDS011;75932;48.616;9.270;2024-03-07T09:51:46;34.88;;;18.48;;
85523;SDS011;75932;48.616;9.270;2024-03-07T09:54:12;32.63;;;18.30;;
85523;SDS011;75932;48.616;9.270;2024-03-07T09:56:39;39.88;;;22.40;;
85523;SDS011;75932;48.616;9.270;2024-03-07T09:59:08;41.58;;;21.45;;
85523;SDS011;75932;48.616;9.270;2024-03-07T10:01:37;38.47;;;20.08;;
85523;SDS011;75932;48.616;9.270;2024-03-07T10:04:02;41.85;;;21.58;;
85523;SDS011;75932;48.616;9.270;2024-03-07T10:06:42;37.83;;;19.60;;
85523;SDS011;75932;48.616;9.270;2024-03-07T10:09:11;37.90;;;20.80;;
85523;SDS011;75932;48.616;9.270;2024-03-07T10:11:41;46.08;;;24.40;;
85523;SDS011;75932;48.616;9.270;2024-03-07T10:14:09;44.15;;;23.65;;
85523;SDS011;75932;48.616;9.270;2024-03-07T10:16:35;39.78;;;21.67;;
85523;SDS011;75932;48.616;9.270;2024-03-07T10:19:04;40.65;;;20.83;;
85523;SDS011;75932;48.616;9.270;2024-03-07T10:21:30;45.38;;;21.67;;
85523;SDS011;75932;48.616;9.270;2024-03-07T10:24:05;36.85;;;20.77;;
85523;SDS011;75932;48.616;9.270;2024-03-07T10:26:35;33.47;;;16.05;;
85523;SDS011;75932;48.616;9.270;2024-03-07T10:29:00;36.40;;;21.48;;
85523;SDS011;75932;48.616;9.270;2024-03-07T10:31:30;31.70;;;18.17;;
85523;SDS011;75932;48.616;9.270;2024-03-07T10:34:02;30.20;;;17.98;;
85523;SDS011;75932;48.616;9.270;2024-03-07T10:36:32;26.77;;;13.13;;
85523;SDS011;75932;48.616;9.270;2024-03-07T10:38:58;40.22;;;23.10;;
85523;SDS011;75932;48.616;9.270;2024-03-07T10:41:36;33.45;;;18.75;;
85523;SDS011;75932;48.616;9.270;2024-03-07T10:44:20;39.78;;;20.33;;
85523;SDS011;75932;48.616;9.270;2024-03-07T10:46:54;34.78;;;18.88;;
85523;SDS011;75932;48.616;9.270;2024-03-07T10:49:21;34.80;;;17.38;;
85523;SDS011;75932;48.616;9.270;2024-03-07T10:51:49;37.25;;;21.52;;
85523;SDS011;75932;48.616;9.270;2024-03-07T10:57:49;27.98;;;15.05;;
85523;SDS011;75932;48.616;9.270;2024-03-07T11:00:14;37.08;;;18.52;;
85523;SDS011;75932;48.616;9.270;2024-03-07T11:02:58;39.13;;;19.17;;
85523;SDS011;75932;48.616;9.270;2024-03-07T11:05:27;36.38;;;20.85;;
85523;SDS011;75932;48.616;9.270;2024-03-07T11:07:57;32.22;;;18.67;;
85523;SDS011;75932;48.616;9.270;2024-03-07T11:10:24;35.22;;;18.17;;
85523;SDS011;75932;48.616;9.270;2024-03-07T11:12:50;27.10;;;15.75;;
85523;SDS011;75932;48.616;9.270;2024-03-07T11:15:16;37.20;;;19.77;;
85523;SDS011;75932;48.616;9.270;2024-03-07T11:17:47;37.35;;;19.00;;
85523;SDS011;75932;48.616;9.270;2024-03-07T11:22:58;35.90;;;17.45;;
85523;SDS011;75932;48.616;9.270;2024-03-07T11:25:24;32.05;;;18.63;;
85523;SDS011;75932;48.616;9.270;2024-03-07T11:27:59;34.50;;;20.70;;
85523;SDS011;75932;48.616;9.270;2024-03-07T11:30:27;34.70;;;18.65;;
85523;SDS011;75932;48.616;9.270;2024-03-07T11:32:53;35.65;;;19.70;;
85523;SDS011;75932;48.616;9.270;2024-03-07T11:35:20;35.38;;;17.95;;
85523;SDS011;75932;48.616;9.270;2024-03-07T11:37:56;35.53;;;18.77;;
85523;SDS011;75932;48.616;9.270;2024-03-07T11:42:49;27.85;;;15.88;;
85523;SDS011;75932;48.616;9.270;2024-03-07T11:45:17;36.13;;;20.48;;
85523;SDS011;75932;48.616;9.270;2024-03-07T11:47:50;33.13;;;17.42;;
85523;SDS011;75932;48.616;9.270;2024-03-07T11:50:22;29.45;;;15.90;;
85523;SDS011;75932;48.616;9.270;2024-03-07T11:52:50;32.25;;;18.10;;
85523;SDS011;75932;48.616;9.270;2024-03-07T11:55:18;29.13;;;14.77;;
85523;SDS011;75932;48.616;9.270;2024-03-07T11:57:44;33.55;;;15.85;;
85523;SDS011;75932;48.616;9.270;2024-03-07T12:00:11;31.95;;;17.85;;
85523;SDS011;75932;48.616;9.270;2024-03-07T12:02:38;32.13;;;18.02;;
85523;SDS011;75932;48.616;9.270;2024-03-07T12:05:06;32.72;;;16.65;;
85523;SDS011;75932;48.616;9.270;2024-03-07T12:07:33;31.17;;;15.73;;
85523;SDS011;75932;48.616;9.270;2024-03-07T12:10:01;37.97;;;22.27;;
85523;SDS011;75932;48.616;9.270;2024-03-07T12:12:30;31.90;;;17.40;;
85523;SDS011;75932;48.616;9.270;2024-03-07T12:14:56;36.28;;;19.70;;
85523;SDS011;75932;48.616;9.270;2024-03-07T12:17:22;37.33;;;20.92;;
85523;SDS011;75932;48.616;9.270;2024-03-07T12:19:48;23.95;;;15.52;;
85523;SDS011;75932;48.616;9.270;2024-03-07T12:22:16;33.85;;;18.17;;
85523;SDS011;75932;48.616;9.270;2024-03-07T12:24:47;41.60;;;18.88;;
85523;SDS011;75932;48.616;9.270;2024-03-07T12:27:28;41.92;;;23.40;;
85523;SDS011;75932;48.616;9.270;2024-03-07T12:29:54;43.25;;;22.17;;
85523;SDS011;75932;48.616;9.270;2024-03-07T12:32:20;39.28;;;21.15;;
85523;SDS011;75932;48.616;9.270;2024-03-07T12:34:45;41.42;;;21.90;;
85523;SDS011;75932;48.616;9.270;2024-03-07T12:37:12;34.50;;;20.80;;
85523;SDS011;75932;48.616;9.270;2024-03-07T12:39:44;43.05;;;23.05;;
85523;SDS011;75932;48.616;9.270;2024-03-07T12:42:17;38.65;;;21.98;;
85523;SDS011;75932;48.616;9.270;2024-03-07T12:44:43;40.80;;;21.63;;
85523;SDS011;75932;48.616;9.270;2024-03-07T12:47:14;37.92;;;21.83;;
85523;SDS011;75932;48.616;9.270;2024-03-07T12:49:40;40.08;;;21.13;;
85523;SDS011;75932;48.616;9.270;2024-03-07T12:52:06;39.88;;;25.48;;
85523;SDS011;75932;48.616;9.270;2024-03-07T12:54:33;36.47;;;21.77;;
85523;SDS011;75932;48.616;9.270;2024-03-07T12:57:10;39.60;;;24.10;;
85523;SDS011;75932;48.616;9.270;2024-03-07T12:59:39;37.15;;;21.25;;
85523;SDS011;75932;48.616;9.270;2024-03-07T13:02:06;37.03;;;20.02;;
85523;SDS011;75932;48.616;9.270;2024-03-07T13:04:35;42.28;;;21.73;;
85523;SDS011;75932;48.616;9.270;2024-03-07T13:07:04;40.67;;;23.02;;
85523;SDS011;75932;48.616;9.270;2024-03-07T13:09:32;44.38;;;23.98;;
85523;SDS011;75932;48.616;9.270;2024-03-07T13:11:58;39.00;;;19.73;;
85523;SDS011;75932;48.616;9.270;2024-03-07T13:14:28;39.53;;;22.27;;
85523;SDS011;75932;48.616;9.270;2024-03-07T13:16:57;35.78;;;19.48;;
85523;SDS011;75932;48.616;9.270;2024-03-07T13:19:27;41.33;;;22.23;;
85523;SDS011;75932;48.616;9.270;2024-03-07T13:21:53;38.08;;;19.70;;
85523;SDS011;75932;48.616;9.270;2024-03-07T13:24:18;47.15;;;25.23;;
85523;SDS011;75932;48.616;9.270;2024-03-07T13:26:45;44.13;;;23.23;;
85523;SDS011;75932;48.616;9.270;2024-03-07T13:29:13;42.88;;;21.95;;
85523;SDS011;75932;48.616;9.270;2024-03-07T13:31:39;40.72;;;22.10;;
85523;SDS011;75932;48.616;9.270;2024-03-07T13:34:07;39.05;;;21.95;;
85523;SDS011;75932;48.616;9.270;2024-03-07T13:36:38;30.60;;;17.42;;
85523;SDS011;75932;48.616;9.270;2024-03-07T13:39:03;38.60;;;22.30;;
85523;SDS011;75932;48.616;9.270;2024-03-07T13:41:28;39.23;;;22.47;;
85523;SDS011;75932;48.616;9.270;2024-03-07T13:43:55;42.53;;;22.23;;
85523;SDS011;75932;48.616;9.270;2024-03-07T13:46:21;42.80;;;22.30;;
85523;SDS011;75932;48.616;9.270;2024-03-07T13:48:47;38.88;;;20.05;;
85523;SDS011;75932;48.616;9.270;2024-03-07T13:51:12;35.72;;;20.13;;
85523;SDS011;75932;48.616;9.270;2024-03-07T13:53:40;38.90;;;22.80;;
85523;SDS011;75932;48.616;9.270;2024-03-07T14:18:48;32.05;;;19.08;;
85523;SDS011;75932;48.616;9.270;2024-03-07T14:30:18;34.30;;;20.77;;
85523;SDS011;75932;48.616;9.270;2024-03-07T14:32:51;25.15;;;15.95;;
85523;SDS011;75932;48.616;9.270;2024-03-07T14:40:50;34.50;;;19.20;;
85523;SDS011;75932;48.616;9.270;2024-03-07T14:43:16;37.35;;;22.15;;
85523;SDS011;75932;48.616;9.270;2024-03-07T14:45:44;36.45;;;20.98;;
85523;SDS011;75932;48.616;9.270;2024-03-07T14:48:11;35.80;;;20.08;;
85523;SDS011;75932;48.616;9.270;2024-03-07T14:50:40;37.20;;;21.90;;
85523;SDS011;75932;48.616;9.270;2024-03-07T14:53:07;43.42;;;23.23;;
85523;SDS011;75932;48.616;9.270;2024-03-07T14:55:32;39.00;;;24.70;;
85523;SDS011;75932;48.616;9.270;2024-03-07T14:58:00;35.58;;;22.02;;
85523;SDS011;75932;48.616;9.270;2024-03-07T15:00:26;32.70;;;20.15;;
85523;SDS011;75932;48.616;9.270;2024-03-07T15:02:54;35.47;;;22.08;;
85523;SDS011;75932;48.616;9.270;2024-03-07T15:05:23;36.05;;;20.02;;
85523;SDS011;75932;48.616;9.270;2024-03-07T15:07:49;34.00;;;21.45;;
85523;SDS011;75932;48.616;9.270;2024-03-07T15:10:25;34.70;;;21.15;;